createdAt,value
2023-04-30T00:00:31.131Z,12.14
2023-04-30T00:02:02.772Z,12.08
2023-04-30T00:03:34.460Z,12.04
2023-04-30T00:05:06.774Z,12.04
2023-04-30T00:06:38.341Z,12.08
2023-04-30T00:08:09.896Z,12.13
2023-04-30T00:09:41.470Z,12.13
2023-04-30T00:11:13.025Z,12.16
2023-04-30T00:12:44.558Z,12.15
2023-04-30T00:14:16.444Z,12.12
2023-04-30T00:15:48.008Z,12.09
2023-04-30T00:17:19.601Z,12.07
2023-04-30T00:18:51.497Z,12.09
2023-04-30T00:20:23.439Z,12.06
2023-04-30T00:21:54.964Z,12.02
2023-04-30T00:23:26.564Z,11.97
2023-04-30T00:24:58.510Z,11.90
2023-04-30T00:26:30.274Z,11.83
2023-04-30T00:28:02.151Z,11.76
2023-04-30T00:29:33.725Z,11.72
2023-04-30T00:31:09.299Z,11.69
2023-04-30T00:32:41.132Z,11.67
2023-04-30T00:34:12.702Z,11.66
2023-04-30T00:35:44.544Z,11.62
2023-04-30T00:37:16.419Z,11.59
2023-04-30T00:38:48.098Z,11.59
2023-04-30T00:40:20.580Z,11.56
2023-04-30T00:41:52.254Z,11.55
2023-04-30T00:43:23.744Z,11.52
2023-04-30T00:44:55.407Z,11.50
2023-04-30T00:46:27.473Z,11.46
2023-04-30T00:47:59.290Z,11.43
2023-04-30T00:49:31.068Z,11.43
2023-04-30T00:51:03.643Z,11.43
2023-04-30T00:52:35.159Z,11.43
2023-04-30T00:54:06.846Z,11.43
2023-04-30T00:55:38.977Z,11.48
2023-04-30T00:57:11.892Z,11.49
2023-04-30T00:58:43.789Z,11.49
2023-04-30T01:00:16.459Z,11.53
2023-04-30T01:01:48.451Z,11.52
2023-04-30T01:03:20.302Z,11.53
2023-04-30T01:04:52.183Z,11.54
2023-04-30T01:06:24.271Z,11.52
2023-04-30T01:07:56.160Z,11.49
2023-04-30T01:09:28.387Z,11.48
2023-04-30T01:11:18.535Z,11.48
2023-04-30T01:12:50.043Z,11.42
2023-04-30T01:14:36.934Z,11.39
2023-04-30T01:16:28.944Z,11.38
2023-04-30T01:18:03.867Z,11.36
2023-04-30T01:19:37.098Z,11.34
2023-04-30T01:21:09.045Z,11.32
2023-04-30T01:22:48.743Z,11.33
2023-04-30T01:24:38.325Z,11.35
2023-04-30T01:26:16.838Z,11.36
2023-04-30T01:28:07.066Z,11.34
2023-04-30T01:29:38.912Z,11.33
2023-04-30T01:31:18.289Z,11.29
2023-04-30T01:32:49.982Z,11.28
2023-04-30T01:34:21.456Z,11.25
2023-04-30T01:35:56.209Z,11.27
2023-04-30T01:37:30.866Z,11.26
2023-04-30T01:39:05.439Z,11.23
2023-04-30T01:40:41.830Z,11.22
2023-04-30T01:42:14.324Z,11.19
2023-04-30T01:44:04.392Z,11.17
2023-04-30T01:45:47.725Z,11.11
2023-04-30T01:47:31.775Z,11.03
2023-04-30T01:49:20.323Z,10.98
2023-04-30T01:51:10.950Z,10.95
2023-04-30T01:52:42.526Z,10.91
2023-04-30T01:54:18.760Z,10.89
2023-04-30T01:55:52.678Z,10.89
2023-04-30T01:57:27.222Z,10.91
2023-04-30T01:58:59.276Z,10.93
2023-04-30T02:00:31.080Z,10.95
2023-04-30T02:02:02.599Z,10.95
2023-04-30T02:03:34.361Z,10.92
2023-04-30T02:05:06.596Z,10.89
2023-04-30T02:06:38.165Z,10.87
2023-04-30T02:08:09.833Z,10.88
2023-04-30T02:09:41.538Z,10.86
2023-04-30T02:11:15.701Z,10.86
2023-04-30T02:12:47.315Z,10.85
2023-04-30T02:14:18.852Z,10.85
2023-04-30T02:15:50.578Z,10.87
2023-04-30T02:17:22.193Z,10.90
2023-04-30T02:18:54.063Z,10.93
2023-04-30T02:20:26.200Z,10.97
2023-04-30T02:21:57.759Z,11.00
2023-04-30T02:23:29.346Z,11.03
2023-04-30T02:25:01.123Z,11.01
2023-04-30T02:26:32.649Z,11.03
2023-04-30T02:28:04.439Z,11.01
2023-04-30T02:29:36.253Z,11.03
2023-04-30T02:31:07.774Z,11.04
2023-04-30T02:32:39.524Z,11.07
2023-04-30T02:34:11.171Z,11.15
2023-04-30T02:35:42.751Z,11.21
2023-04-30T02:37:14.831Z,11.26
2023-04-30T02:38:47.096Z,11.29
2023-04-30T02:40:18.556Z,11.29
2023-04-30T02:41:50.093Z,11.24
2023-04-30T02:43:21.669Z,11.19
2023-04-30T02:44:58.050Z,11.17
2023-04-30T02:46:34.397Z,11.13
2023-04-30T02:48:06.600Z,11.07
2023-04-30T02:49:38.304Z,11.06
2023-04-30T02:51:09.862Z,11.05
2023-04-30T02:52:41.528Z,11.08
2023-04-30T02:54:13.102Z,11.08
2023-04-30T02:55:44.700Z,11.09
2023-04-30T02:57:16.328Z,11.08
2023-04-30T02:58:47.935Z,11.11
2023-04-30T03:00:19.912Z,11.12
2023-04-30T03:01:51.520Z,11.14
2023-04-30T03:03:23.466Z,11.14
2023-04-30T03:04:55.254Z,11.15
2023-04-30T03:06:27.000Z,11.16
2023-04-30T03:07:58.555Z,11.15
2023-04-30T03:09:31.124Z,11.15
2023-04-30T03:11:02.624Z,11.13
2023-04-30T03:12:34.647Z,11.10
2023-04-30T03:14:06.139Z,11.07
2023-04-30T03:15:37.647Z,11.04
2023-04-30T03:17:09.390Z,11.01
2023-04-30T03:18:40.857Z,11.00
2023-04-30T03:20:12.822Z,11.00
2023-04-30T03:21:44.324Z,11.02
2023-04-30T03:23:15.913Z,11.04
2023-04-30T03:24:47.376Z,11.07
2023-04-30T03:26:19.318Z,11.08
2023-04-30T03:27:50.839Z,11.15
2023-04-30T03:29:22.323Z,11.23
2023-04-30T03:30:53.826Z,11.32
2023-04-30T03:32:25.408Z,11.32
2023-04-30T03:33:56.998Z,11.35
2023-04-30T03:35:28.534Z,11.35
2023-04-30T03:37:01.926Z,11.38
2023-04-30T03:38:33.735Z,11.40
2023-04-30T03:40:05.491Z,11.41
2023-04-30T03:41:37.008Z,11.39
2023-04-30T03:43:08.552Z,11.41
2023-04-30T03:44:40.597Z,11.39
2023-04-30T03:46:12.165Z,11.38
2023-04-30T03:47:43.887Z,11.40
2023-04-30T03:49:15.986Z,11.43
2023-04-30T03:50:47.671Z,11.42
2023-04-30T03:52:19.196Z,11.43
2023-04-30T03:53:50.722Z,11.46
2023-04-30T03:55:22.209Z,11.47
2023-04-30T03:56:53.774Z,11.49
2023-04-30T03:58:25.511Z,11.54
2023-04-30T03:59:57.213Z,11.57
2023-04-30T04:01:29.490Z,11.65
2023-04-30T04:03:01.111Z,11.73
2023-04-30T04:04:33.410Z,11.78
2023-04-30T04:06:05.501Z,11.82
2023-04-30T04:07:37.188Z,11.83
2023-04-30T04:09:08.664Z,11.83
2023-04-30T04:10:43.307Z,11.84
2023-04-30T04:12:14.856Z,11.84
2023-04-30T04:13:47.066Z,11.84
2023-04-30T04:15:18.684Z,11.88
2023-04-30T04:16:50.194Z,11.89
2023-04-30T04:18:22.190Z,11.96
2023-04-30T04:19:54.679Z,12.04
2023-04-30T04:21:27.005Z,12.12
2023-04-30T04:22:58.538Z,12.12
2023-04-30T04:24:30.056Z,12.16
2023-04-30T04:26:01.769Z,12.15
2023-04-30T04:27:33.526Z,12.10
2023-04-30T04:29:05.094Z,12.11
2023-04-30T04:30:36.953Z,12.13
2023-04-30T04:32:10.506Z,12.19
2023-04-30T04:33:42.065Z,12.29
2023-04-30T04:35:14.520Z,12.43
2023-04-30T04:36:46.064Z,12.57
2023-04-30T04:38:18.190Z,12.66
2023-04-30T04:39:49.706Z,12.67
2023-04-30T04:41:21.746Z,12.68
2023-04-30T04:42:53.471Z,12.67
2023-04-30T04:44:25.414Z,12.70
2023-04-30T04:45:57.368Z,12.76
2023-04-30T04:47:29.254Z,12.79
2023-04-30T04:49:00.863Z,12.81
2023-04-30T04:50:32.509Z,12.83
2023-04-30T04:52:04.142Z,12.87
2023-04-30T04:53:36.661Z,12.87
2023-04-30T04:55:08.428Z,12.82
2023-04-30T04:56:40.150Z,12.79
2023-04-30T04:58:11.809Z,12.77
2023-04-30T04:59:43.936Z,12.73
2023-04-30T05:01:15.582Z,12.72
2023-04-30T05:02:47.349Z,12.72
2023-04-30T05:04:19.259Z,12.75
2023-04-30T05:05:50.993Z,12.75
2023-04-30T05:07:22.675Z,12.70
2023-04-30T05:08:54.408Z,12.61
2023-04-30T05:10:26.124Z,12.57
2023-04-30T05:11:57.756Z,12.61
2023-04-30T05:13:29.786Z,12.65
2023-04-30T05:15:01.548Z,12.63
2023-04-30T05:16:33.727Z,12.58
2023-04-30T05:18:06.123Z,12.52
2023-04-30T05:19:37.950Z,12.50
2023-04-30T05:21:09.728Z,12.51
2023-04-30T05:22:41.388Z,12.53
2023-04-30T05:24:12.984Z,12.51
2023-04-30T05:25:44.634Z,12.55
2023-04-30T05:27:16.909Z,12.58
2023-04-30T05:28:48.714Z,12.56
2023-04-30T05:30:20.659Z,12.56
2023-04-30T05:31:52.858Z,12.59
2023-04-30T05:33:25.021Z,12.59
2023-04-30T05:34:56.744Z,12.62
2023-04-30T05:36:29.778Z,12.64
2023-04-30T05:38:01.611Z,12.67
2023-04-30T05:39:33.282Z,12.74
2023-04-30T05:41:05.024Z,12.78
2023-04-30T05:42:38.481Z,12.83
2023-04-30T05:44:10.085Z,12.86
2023-04-30T05:45:41.755Z,12.89
2023-04-30T05:47:13.492Z,12.90
2023-04-30T05:48:45.138Z,12.93
2023-04-30T05:50:16.777Z,12.98
2023-04-30T05:51:48.334Z,13.00
2023-04-30T05:53:20.282Z,13.03
2023-04-30T05:54:52.018Z,13.03
2023-04-30T05:56:24.882Z,13.07
2023-04-30T05:57:56.532Z,13.06
2023-04-30T05:59:28.193Z,13.09
2023-04-30T06:00:59.826Z,13.14
2023-04-30T06:02:31.791Z,13.12
2023-04-30T06:04:05.234Z,13.08
2023-04-30T06:05:36.988Z,13.14
2023-04-30T06:07:08.668Z,13.18
2023-04-30T06:08:44.854Z,13.15
2023-04-30T06:10:17.009Z,13.16
2023-04-30T06:11:50.700Z,13.21
2023-04-30T06:13:22.503Z,13.27
2023-04-30T06:14:54.784Z,13.32
2023-04-30T06:16:26.645Z,13.37
2023-04-30T06:17:58.757Z,13.41
2023-04-30T06:19:30.815Z,13.40
2023-04-30T06:21:02.745Z,13.48
2023-04-30T06:22:34.606Z,13.56
2023-04-30T06:24:06.538Z,13.62
2023-04-30T06:25:38.566Z,13.67
2023-04-30T06:27:10.720Z,13.73
2023-04-30T06:28:42.388Z,13.78
2023-04-30T06:30:14.012Z,13.81
2023-04-30T06:31:45.839Z,13.86
2023-04-30T06:33:17.659Z,13.86
2023-04-30T06:34:50.109Z,13.87
2023-04-30T06:36:21.795Z,13.92
2023-04-30T06:37:53.385Z,13.94
2023-04-30T06:39:25.096Z,13.95
2023-04-30T06:40:57.898Z,13.97
2023-04-30T06:42:34.715Z,13.91
2023-04-30T06:44:07.008Z,13.86
2023-04-30T06:45:39.223Z,13.89
2023-04-30T06:47:10.933Z,13.88
2023-04-30T06:48:42.548Z,13.90
2023-04-30T06:50:15.836Z,13.93
2023-04-30T06:51:47.929Z,14.07
2023-04-30T06:53:20.349Z,14.19
2023-04-30T06:54:52.006Z,14.31
2023-04-30T06:56:25.222Z,14.47
2023-04-30T06:57:58.176Z,14.70
2023-04-30T06:59:30.557Z,15.02
2023-04-30T07:01:02.322Z,15.34
2023-04-30T07:02:33.971Z,15.68
2023-04-30T07:04:05.823Z,15.91
2023-04-30T07:05:37.600Z,16.14
2023-04-30T07:07:10.111Z,16.41
2023-04-30T07:08:44.068Z,16.61
2023-04-30T07:10:16.547Z,16.77
2023-04-30T07:11:48.888Z,16.74
2023-04-30T07:13:20.647Z,16.61
2023-04-30T07:14:52.398Z,16.48
2023-04-30T07:16:25.911Z,16.43
2023-04-30T07:17:57.991Z,16.44
2023-04-30T07:19:29.708Z,16.49
2023-04-30T07:21:01.796Z,16.65
2023-04-30T07:22:33.589Z,16.83
2023-04-30T07:24:05.713Z,16.96
2023-04-30T07:25:37.388Z,16.95
2023-04-30T07:27:09.087Z,17.00
2023-04-30T07:28:40.666Z,17.07
2023-04-30T07:30:12.441Z,17.17
2023-04-30T07:31:44.622Z,17.33
2023-04-30T07:33:17.032Z,17.48
2023-04-30T07:34:49.534Z,17.63
2023-04-30T07:36:21.497Z,17.75
2023-04-30T07:37:53.166Z,17.78
2023-04-30T07:39:24.852Z,17.83
2023-04-30T07:40:56.514Z,17.86
2023-04-30T07:42:28.118Z,17.92
2023-04-30T07:44:00.030Z,17.92
2023-04-30T07:45:31.923Z,17.93
2023-04-30T07:47:03.878Z,17.99
2023-04-30T07:48:35.509Z,18.04
2023-04-30T07:50:07.459Z,18.09
2023-04-30T07:51:39.663Z,18.10
2023-04-30T07:53:11.224Z,18.14
2023-04-30T07:54:42.856Z,18.13
2023-04-30T07:56:14.401Z,18.16
2023-04-30T07:57:46.060Z,18.13
2023-04-30T07:59:17.844Z,18.13
2023-04-30T08:00:50.122Z,18.17
2023-04-30T08:02:21.997Z,18.02
2023-04-30T08:03:53.792Z,17.86
2023-04-30T08:05:25.336Z,17.77
2023-04-30T08:06:57.004Z,17.76
2023-04-30T08:08:28.729Z,17.72
2023-04-30T08:10:00.293Z,17.68
2023-04-30T08:11:32.304Z,17.69
2023-04-30T08:13:04.516Z,17.70
2023-04-30T08:14:36.383Z,17.67
2023-04-30T08:16:08.059Z,17.65
2023-04-30T08:17:39.989Z,17.61
2023-04-30T08:19:11.723Z,17.62
2023-04-30T08:20:43.580Z,17.55
2023-04-30T08:22:15.680Z,17.50
2023-04-30T08:23:47.924Z,17.40
2023-04-30T08:25:19.495Z,17.31
2023-04-30T08:26:52.973Z,17.24
2023-04-30T08:28:25.861Z,17.21
2023-04-30T08:29:57.502Z,17.19
2023-04-30T08:31:29.297Z,17.22
2023-04-30T08:33:01.017Z,17.30
2023-04-30T08:34:32.852Z,17.31
2023-04-30T08:36:04.554Z,17.42
2023-04-30T08:37:36.307Z,17.55
2023-04-30T08:39:07.995Z,17.64
2023-04-30T08:40:51.156Z,17.71
2023-04-30T08:42:36.424Z,17.79
2023-04-30T08:44:23.206Z,17.91
2023-04-30T08:45:55.953Z,18.03
2023-04-30T08:47:28.091Z,18.10
2023-04-30T08:49:00.558Z,18.19
2023-04-30T08:50:32.740Z,18.20
2023-04-30T08:52:04.431Z,18.27
2023-04-30T08:53:37.000Z,18.40
2023-04-30T08:55:09.155Z,18.46
2023-04-30T08:56:41.570Z,18.51
2023-04-30T08:58:13.398Z,18.59
2023-04-30T08:59:45.778Z,18.63
2023-04-30T09:01:17.486Z,18.71
2023-04-30T09:02:50.093Z,18.78
2023-04-30T09:04:22.822Z,18.77
2023-04-30T09:05:55.437Z,18.80
2023-04-30T09:07:29.406Z,18.85
2023-04-30T09:09:10.127Z,18.90
2023-04-30T09:10:42.608Z,18.95
2023-04-30T09:12:19.596Z,18.94
2023-04-30T09:13:55.162Z,18.88
2023-04-30T09:15:26.756Z,18.84
2023-04-30T09:16:58.663Z,18.88
2023-04-30T09:18:30.606Z,18.98
2023-04-30T09:20:11.696Z,19.03
2023-04-30T09:21:43.488Z,19.10
2023-04-30T09:23:15.003Z,19.05
2023-04-30T09:24:48.115Z,19.04
2023-04-30T09:26:21.505Z,19.09
2023-04-30T09:28:23.812Z,19.15
2023-04-30T09:29:56.926Z,19.30
2023-04-30T09:31:28.736Z,19.52
2023-04-30T09:33:00.280Z,19.68
2023-04-30T09:34:36.112Z,19.77
2023-04-30T09:36:10.875Z,19.85
2023-04-30T09:37:42.470Z,19.85
2023-04-30T09:39:17.589Z,19.82
2023-04-30T09:40:49.825Z,19.88
2023-04-30T09:42:21.884Z,19.95
2023-04-30T09:43:54.351Z,20.01
2023-04-30T09:45:25.911Z,19.91
2023-04-30T09:46:58.208Z,19.85
2023-04-30T09:48:30.039Z,19.87
2023-04-30T09:50:01.606Z,19.80
2023-04-30T09:51:33.626Z,19.79
2023-04-30T09:53:10.870Z,19.78
2023-04-30T09:54:42.535Z,19.80
2023-04-30T09:56:14.342Z,19.80
2023-04-30T09:57:46.565Z,19.81
2023-04-30T09:59:18.300Z,19.81
2023-04-30T10:00:50.250Z,19.81
2023-04-30T10:02:23.450Z,19.81
2023-04-30T10:03:55.977Z,19.75
2023-04-30T10:05:27.616Z,19.73
2023-04-30T10:06:59.804Z,19.74
2023-04-30T10:08:36.615Z,19.76
2023-04-30T10:10:08.878Z,19.77
2023-04-30T10:11:42.384Z,19.78
2023-04-30T10:13:15.557Z,19.75
2023-04-30T10:14:57.594Z,19.76
2023-04-30T10:16:40.097Z,19.80
2023-04-30T10:18:14.815Z,19.91
2023-04-30T10:19:47.954Z,20.01
2023-04-30T10:21:21.589Z,20.05
2023-04-30T10:22:53.842Z,20.06
2023-04-30T10:24:26.368Z,20.10
2023-04-30T10:25:57.949Z,20.15
2023-04-30T10:27:30.150Z,20.08
2023-04-30T10:29:01.921Z,19.99
2023-04-30T10:30:33.514Z,19.93
2023-04-30T10:32:05.435Z,20.04
2023-04-30T10:33:52.292Z,20.09
2023-04-30T10:35:27.780Z,20.10
2023-04-30T10:37:09.753Z,20.12
2023-04-30T10:38:41.344Z,20.13
2023-04-30T10:40:14.956Z,20.21
2023-04-30T10:41:49.591Z,20.33
2023-04-30T10:43:22.247Z,20.31
2023-04-30T10:44:53.873Z,20.39
2023-04-30T10:46:25.737Z,20.44
2023-04-30T10:47:58.223Z,20.47
2023-04-30T10:49:29.962Z,20.43
2023-04-30T10:51:01.535Z,20.36
2023-04-30T10:52:33.153Z,20.37
2023-04-30T10:54:04.667Z,20.41
2023-04-30T10:55:41.924Z,20.29
2023-04-30T10:57:22.995Z,20.16
2023-04-30T10:58:55.137Z,19.92
2023-04-30T11:00:29.489Z,19.80
2023-04-30T11:02:01.666Z,19.71
2023-04-30T11:03:34.445Z,19.70
2023-04-30T11:05:13.568Z,19.77
2023-04-30T11:06:54.223Z,19.88
2023-04-30T11:08:37.867Z,20.12
2023-04-30T11:10:10.000Z,20.24
2023-04-30T11:11:41.707Z,20.48
2023-04-30T11:13:13.194Z,20.73
2023-04-30T11:14:45.142Z,21.01
2023-04-30T11:16:16.773Z,21.13
2023-04-30T11:17:51.602Z,21.34
2023-04-30T11:19:24.960Z,21.52
2023-04-30T11:20:57.642Z,21.74
2023-04-30T11:22:36.446Z,21.91
2023-04-30T11:24:08.159Z,21.96
2023-04-30T11:25:40.590Z,21.93
2023-04-30T11:27:13.250Z,21.87
2023-04-30T11:28:50.733Z,21.91
2023-04-30T11:30:22.322Z,21.87
2023-04-30T11:31:53.949Z,21.89
2023-04-30T11:33:26.310Z,21.84
2023-04-30T11:34:58.369Z,21.85
2023-04-30T11:36:31.349Z,21.88
2023-04-30T11:38:04.507Z,21.93
2023-04-30T11:39:36.450Z,22.06
2023-04-30T11:41:08.442Z,22.18
2023-04-30T11:42:42.000Z,22.25
2023-04-30T11:44:26.064Z,22.26
2023-04-30T11:46:10.405Z,22.23
2023-04-30T11:47:45.743Z,22.24
2023-04-30T11:49:17.640Z,22.30
2023-04-30T11:50:49.391Z,22.38
2023-04-30T11:52:21.872Z,22.51
2023-04-30T11:53:54.057Z,22.68
2023-04-30T11:55:25.978Z,22.85
2023-04-30T11:57:03.955Z,22.99
2023-04-30T11:58:38.126Z,22.90
2023-04-30T12:00:13.997Z,22.88
2023-04-30T12:01:45.614Z,22.89
2023-04-30T12:03:19.614Z,22.88
2023-04-30T12:04:51.399Z,22.79
2023-04-30T12:06:24.127Z,22.64
2023-04-30T12:08:07.072Z,22.58
2023-04-30T12:09:57.491Z,22.40
2023-04-30T12:11:29.654Z,22.18
2023-04-30T12:13:01.141Z,22.06
2023-04-30T12:14:34.989Z,22.05
2023-04-30T12:16:07.078Z,22.07
2023-04-30T12:17:38.766Z,21.97
2023-04-30T12:19:10.437Z,21.84
2023-04-30T12:20:42.100Z,21.70
2023-04-30T12:22:15.000Z,21.69
2023-04-30T12:23:46.718Z,21.65
2023-04-30T12:25:18.890Z,21.65
2023-04-30T12:26:50.775Z,21.62
2023-04-30T12:28:23.758Z,21.67
2023-04-30T12:29:56.679Z,21.63
2023-04-30T12:31:28.374Z,21.61
2023-04-30T12:33:00.638Z,21.66
2023-04-30T12:34:33.811Z,21.65
2023-04-30T12:36:05.691Z,21.57
2023-04-30T12:37:37.333Z,21.52
2023-04-30T12:39:09.928Z,21.56
2023-04-30T12:40:46.422Z,21.72
2023-04-30T12:42:21.494Z,21.88
2023-04-30T12:44:12.962Z,22.00
2023-04-30T12:45:55.173Z,22.17
2023-04-30T12:47:26.769Z,22.34
2023-04-30T12:49:00.203Z,22.47
2023-04-30T12:50:31.763Z,22.57
2023-04-30T12:52:04.978Z,22.59
2023-04-30T12:53:37.450Z,22.72
2023-04-30T12:55:19.680Z,22.85
2023-04-30T12:57:11.082Z,22.92
2023-04-30T12:58:45.667Z,23.03
2023-04-30T13:00:17.337Z,23.12
2023-04-30T13:01:48.972Z,23.05
2023-04-30T13:03:21.397Z,23.12
2023-04-30T13:04:53.844Z,23.14
2023-04-30T13:06:25.743Z,23.18
2023-04-30T13:08:02.361Z,23.16
2023-04-30T13:09:34.646Z,23.10
2023-04-30T13:11:07.113Z,23.05
2023-04-30T13:12:38.868Z,22.95
2023-04-30T13:14:11.568Z,22.83
2023-04-30T13:15:43.737Z,22.71
2023-04-30T13:17:15.566Z,22.65
2023-04-30T13:18:47.985Z,22.56
2023-04-30T13:20:19.565Z,22.55
2023-04-30T13:21:51.358Z,22.41
2023-04-30T13:23:23.039Z,22.38
2023-04-30T13:24:55.163Z,22.29
2023-04-30T13:26:27.240Z,22.18
2023-04-30T13:27:59.457Z,22.14
2023-04-30T13:29:32.193Z,22.15
2023-04-30T13:31:04.543Z,22.19
2023-04-30T13:32:37.768Z,22.19
2023-04-30T13:34:10.992Z,22.28
2023-04-30T13:35:42.617Z,22.31
2023-04-30T13:37:14.757Z,22.32
2023-04-30T13:38:48.015Z,22.24
2023-04-30T13:40:20.322Z,22.10
2023-04-30T13:41:52.045Z,22.11
2023-04-30T13:43:24.605Z,22.16
2023-04-30T13:44:56.402Z,22.32
2023-04-30T13:46:28.208Z,22.39
2023-04-30T13:48:00.051Z,22.44
2023-04-30T13:49:32.343Z,22.43
2023-04-30T13:51:04.318Z,22.52
2023-04-30T13:52:36.506Z,22.58
2023-04-30T13:54:08.452Z,22.65
2023-04-30T13:55:40.110Z,22.76
2023-04-30T13:57:11.839Z,22.86
2023-04-30T13:58:43.514Z,23.00
2023-04-30T14:00:16.141Z,23.14
2023-04-30T14:01:47.717Z,23.33
2023-04-30T14:03:19.440Z,23.26
2023-04-30T14:05:02.551Z,23.20
2023-04-30T14:06:39.091Z,23.16
2023-04-30T14:08:11.207Z,23.15
2023-04-30T14:09:42.783Z,23.13
2023-04-30T14:11:15.393Z,23.23
2023-04-30T14:12:47.458Z,23.21
2023-04-30T14:14:19.150Z,23.13
2023-04-30T14:15:50.795Z,23.02
2023-04-30T14:17:22.671Z,22.86
2023-04-30T14:18:54.395Z,22.63
2023-04-30T14:20:26.100Z,22.49
2023-04-30T14:21:57.686Z,22.44
2023-04-30T14:23:29.606Z,22.38
2023-04-30T14:25:01.186Z,22.26
2023-04-30T14:26:32.855Z,22.16
2023-04-30T14:28:04.555Z,21.96
2023-04-30T14:29:36.270Z,21.88
2023-04-30T14:31:08.067Z,21.77
2023-04-30T14:32:39.736Z,21.61
2023-04-30T14:34:11.648Z,21.54
2023-04-30T14:35:44.074Z,21.33
2023-04-30T14:37:17.067Z,21.31
2023-04-30T14:38:48.686Z,21.34
2023-04-30T14:40:20.303Z,21.41
2023-04-30T14:41:53.488Z,21.45
2023-04-30T14:43:25.213Z,21.49
2023-04-30T14:44:56.896Z,21.54
2023-04-30T14:46:28.910Z,21.62
2023-04-30T14:48:02.582Z,21.73
2023-04-30T14:49:36.706Z,21.88
2023-04-30T14:51:08.616Z,22.02
2023-04-30T14:52:40.530Z,22.16
2023-04-30T14:54:12.069Z,22.32
2023-04-30T14:55:43.686Z,22.42
2023-04-30T14:57:15.882Z,22.39
2023-04-30T14:58:48.340Z,22.35
2023-04-30T15:00:20.088Z,22.21
2023-04-30T15:01:51.732Z,22.26
2023-04-30T15:03:23.789Z,22.33
2023-04-30T15:04:55.495Z,22.41
2023-04-30T15:06:29.041Z,22.53
2023-04-30T15:08:01.810Z,22.64
2023-04-30T15:09:33.483Z,22.72
2023-04-30T15:11:07.189Z,22.73
2023-04-30T15:12:39.693Z,22.70
2023-04-30T15:14:12.200Z,22.59
2023-04-30T15:15:47.245Z,22.50
2023-04-30T15:17:18.927Z,22.37
2023-04-30T15:18:51.207Z,22.24
2023-04-30T15:20:23.445Z,22.16
2023-04-30T15:21:55.070Z,22.05
2023-04-30T15:23:27.427Z,21.94
2023-04-30T15:24:59.374Z,21.94
2023-04-30T15:26:31.400Z,21.89
2023-04-30T15:28:03.405Z,21.85
2023-04-30T15:29:35.318Z,21.81
2023-04-30T15:31:07.052Z,21.72
2023-04-30T15:32:39.077Z,21.59
2023-04-30T15:34:11.162Z,21.43
2023-04-30T15:35:42.947Z,21.36
2023-04-30T15:37:14.806Z,21.35
2023-04-30T15:38:46.935Z,21.37
2023-04-30T15:40:18.752Z,21.33
2023-04-30T15:41:50.399Z,21.25
2023-04-30T15:43:21.975Z,21.21
2023-04-30T15:44:53.520Z,21.19
2023-04-30T15:46:25.109Z,21.20
2023-04-30T15:47:56.753Z,21.18
2023-04-30T15:49:28.572Z,21.14
2023-04-30T15:51:00.339Z,21.03
2023-04-30T15:52:32.080Z,20.96
2023-04-30T15:54:04.132Z,20.90
2023-04-30T15:55:36.268Z,20.85
2023-04-30T15:57:07.815Z,20.84
2023-04-30T15:58:39.549Z,20.90
2023-04-30T16:00:12.948Z,20.93
2023-04-30T16:01:44.721Z,20.89
2023-04-30T16:03:16.979Z,20.90
2023-04-30T16:04:49.371Z,20.79
2023-04-30T16:06:21.396Z,20.75
2023-04-30T16:07:54.499Z,20.72
2023-04-30T16:09:27.719Z,20.61
2023-04-30T16:11:00.055Z,20.58
2023-04-30T16:12:32.078Z,20.54
2023-04-30T16:14:03.730Z,20.49
2023-04-30T16:15:35.329Z,20.33
2023-04-30T16:17:07.207Z,20.27
2023-04-30T16:18:38.934Z,20.16
2023-04-30T16:20:12.306Z,20.13
2023-04-30T16:21:43.916Z,20.13
2023-04-30T16:23:16.445Z,20.11
2023-04-30T16:24:48.129Z,20.11
2023-04-30T16:26:19.751Z,20.09
2023-04-30T16:27:51.833Z,20.08
2023-04-30T16:29:23.589Z,20.08
2023-04-30T16:30:55.558Z,20.05
2023-04-30T16:32:27.485Z,20.03
2023-04-30T16:33:59.124Z,19.97
2023-04-30T16:35:31.400Z,19.82
2023-04-30T16:37:03.311Z,19.82
2023-04-30T16:38:35.263Z,19.76
2023-04-30T16:40:08.325Z,19.73
2023-04-30T16:41:40.029Z,19.68
2023-04-30T16:43:12.808Z,19.69
2023-04-30T16:44:44.498Z,19.67
2023-04-30T16:46:16.232Z,19.68
2023-04-30T16:47:48.967Z,19.67
2023-04-30T16:49:21.391Z,19.66
2023-04-30T16:50:53.310Z,19.59
2023-04-30T16:52:24.832Z,19.57
2023-04-30T16:53:56.395Z,19.52
2023-04-30T16:55:28.680Z,19.53
2023-04-30T16:57:00.230Z,19.55
2023-04-30T16:58:31.882Z,19.60
2023-04-30T17:00:03.966Z,19.61
2023-04-30T17:01:35.884Z,19.57
2023-04-30T17:03:07.607Z,19.58
2023-04-30T17:04:39.454Z,19.51
2023-04-30T17:06:12.256Z,19.46
2023-04-30T17:07:44.806Z,19.41
2023-04-30T17:09:17.309Z,19.34
2023-04-30T17:10:49.084Z,19.22
2023-04-30T17:12:21.184Z,19.13
2023-04-30T17:13:54.957Z,19.05
2023-04-30T17:15:26.878Z,18.92
2023-04-30T17:16:58.759Z,18.77
2023-04-30T17:18:30.506Z,18.65
2023-04-30T17:20:02.188Z,18.52
2023-04-30T17:21:34.457Z,18.40
2023-04-30T17:23:06.115Z,18.29
2023-04-30T17:24:37.774Z,18.23
2023-04-30T17:26:09.647Z,18.13
2023-04-30T17:27:41.266Z,18.04
2023-04-30T17:29:13.656Z,18.00
2023-04-30T17:30:45.424Z,17.93
2023-04-30T17:32:18.015Z,17.91
2023-04-30T17:33:49.977Z,17.86
2023-04-30T17:35:22.454Z,17.83
2023-04-30T17:36:54.212Z,17.82
2023-04-30T17:38:26.025Z,17.79
2023-04-30T17:39:57.917Z,17.74
2023-04-30T17:41:29.915Z,17.69
2023-04-30T17:43:01.593Z,17.69
2023-04-30T17:44:33.855Z,17.66
2023-04-30T17:46:05.649Z,17.62
2023-04-30T17:47:37.837Z,17.60
2023-04-30T17:49:09.666Z,17.56
2023-04-30T17:50:41.328Z,17.58
2023-04-30T17:52:13.005Z,17.60
2023-04-30T17:53:44.615Z,17.60
2023-04-30T17:55:16.662Z,17.58
2023-04-30T17:56:48.700Z,17.53
2023-04-30T17:58:21.663Z,17.49
2023-04-30T17:59:53.956Z,17.42
2023-04-30T18:01:26.229Z,17.39
2023-04-30T18:02:58.056Z,17.35
2023-04-30T18:04:29.738Z,17.22
2023-04-30T18:06:01.395Z,17.09
2023-04-30T18:07:33.405Z,16.89
2023-04-30T18:09:05.162Z,16.74
2023-04-30T18:10:37.410Z,16.56
2023-04-30T18:12:09.043Z,16.42
2023-04-30T18:13:40.633Z,16.35
2023-04-30T18:15:13.790Z,16.28
2023-04-30T18:16:46.630Z,16.21
2023-04-30T18:18:18.679Z,16.16
2023-04-30T18:19:50.726Z,16.15
2023-04-30T18:21:22.392Z,16.11
2023-04-30T18:22:54.152Z,16.09
2023-04-30T18:24:28.125Z,16.09
2023-04-30T18:25:59.804Z,16.07
2023-04-30T18:27:34.181Z,16.10
2023-04-30T18:29:07.266Z,16.11
2023-04-30T18:30:39.369Z,16.07
2023-04-30T18:32:12.797Z,16.08
2023-04-30T18:33:45.043Z,16.09
2023-04-30T18:35:16.892Z,16.10
2023-04-30T18:36:48.596Z,16.10
2023-04-30T18:38:20.755Z,16.11
2023-04-30T18:39:52.642Z,16.08
2023-04-30T18:41:27.028Z,16.04
2023-04-30T18:42:59.137Z,15.97
2023-04-30T18:44:34.018Z,15.92
2023-04-30T18:46:06.092Z,15.90
2023-04-30T18:47:38.545Z,15.84
2023-04-30T18:49:10.272Z,15.79
2023-04-30T18:50:43.246Z,15.74
2023-04-30T18:52:15.588Z,15.70
2023-04-30T18:53:48.033Z,15.66
2023-04-30T18:55:19.877Z,15.61
2023-04-30T18:56:51.545Z,15.59
2023-04-30T18:58:23.987Z,15.57
2023-04-30T18:59:56.146Z,15.57
2023-04-30T19:01:28.632Z,15.55
2023-04-30T19:03:01.003Z,15.59
2023-04-30T19:04:32.784Z,15.60
2023-04-30T19:06:05.586Z,15.61
2023-04-30T19:07:37.300Z,15.61
2023-04-30T19:09:09.509Z,15.65
2023-04-30T19:10:41.233Z,15.64
2023-04-30T19:12:15.185Z,15.63
2023-04-30T19:13:47.089Z,15.58
2023-04-30T19:15:18.876Z,15.55
2023-04-30T19:16:50.556Z,15.53
2023-04-30T19:18:24.887Z,15.50
2023-04-30T19:20:00.221Z,15.44
2023-04-30T19:21:34.806Z,15.42
2023-04-30T19:23:08.213Z,15.38
2023-04-30T19:24:40.444Z,15.34
2023-04-30T19:26:11.984Z,15.31
2023-04-30T19:27:44.618Z,15.26
2023-04-30T19:29:16.484Z,15.27
2023-04-30T19:30:51.349Z,15.33
2023-04-30T19:32:23.384Z,15.40
2023-04-30T19:33:55.593Z,15.44
2023-04-30T19:35:27.239Z,15.39
2023-04-30T19:36:59.140Z,15.34
2023-04-30T19:38:30.745Z,15.24
2023-04-30T19:40:02.467Z,15.18
2023-04-30T19:41:34.110Z,15.14
2023-04-30T19:43:06.143Z,15.11
2023-04-30T19:44:38.102Z,15.09
2023-04-30T19:46:10.602Z,15.05
2023-04-30T19:47:42.619Z,15.02
2023-04-30T19:49:14.315Z,15.01
2023-04-30T19:50:46.972Z,14.98
2023-04-30T19:52:18.982Z,14.99
2023-04-30T19:53:52.175Z,15.01
2023-04-30T19:55:23.871Z,14.98